createdAt,value
2022-08-08T00:02:32.874Z,45.99
2022-08-08T00:05:09.656Z,45.74
2022-08-08T00:08:00.888Z,46.17
2022-08-08T00:10:53.018Z,46.26
2022-08-08T00:14:15.933Z,46.00
2022-08-08T00:16:37.700Z,45.69
2022-08-08T00:19:20.175Z,46.01
2022-08-08T00:22:06.356Z,45.65
2022-08-08T00:24:42.774Z,45.53
2022-08-08T00:27:13.956Z,45.49
2022-08-08T00:29:47.156Z,45.67
2022-08-08T00:32:35.080Z,45.35
2022-08-08T00:35:21.232Z,45.55
2022-08-08T00:38:06.566Z,45.72
2022-08-08T00:41:10.465Z,45.60
2022-08-08T00:43:58.777Z,45.73
2022-08-08T00:46:58.137Z,46.00
2022-08-08T00:49:50.508Z,46.16
2022-08-08T00:52:54.177Z,46.12
2022-08-08T00:55:53.273Z,46.19
2022-08-08T00:58:43.689Z,46.44
2022-08-08T01:01:38.466Z,46.42
2022-08-08T01:04:33.264Z,46.49
2022-08-08T01:07:54.085Z,46.44
2022-08-08T01:10:45.129Z,46.45
2022-08-08T01:13:53.074Z,46.44
2022-08-08T01:17:05.369Z,46.81
2022-08-08T01:20:23.526Z,46.40
2022-08-08T01:23:08.170Z,46.53
2022-08-08T01:26:30.869Z,46.60
2022-08-08T01:29:35.403Z,46.96
2022-08-08T01:32:17.072Z,46.74
2022-08-08T01:35:12.488Z,46.54
2022-08-08T01:37:59.180Z,46.76
2022-08-08T01:40:50.453Z,47.14
2022-08-08T01:43:34.594Z,47.44
2022-08-08T01:46:23.999Z,47.74
2022-08-08T01:49:23.290Z,47.75
2022-08-08T01:53:03.677Z,47.82
2022-08-08T01:56:26.754Z,47.79
2022-08-08T01:59:02.796Z,48.10
2022-08-08T02:02:03.181Z,48.47
2022-08-08T02:05:16.037Z,48.59
2022-08-08T02:08:18.405Z,48.56
2022-08-08T02:11:01.215Z,48.71
2022-08-08T02:14:03.260Z,48.69
2022-08-08T02:16:49.416Z,48.85
2022-08-08T02:19:26.689Z,48.81
2022-08-08T02:22:34.096Z,48.84
2022-08-08T02:25:47.518Z,48.93
2022-08-08T02:28:41.386Z,48.95
2022-08-08T02:31:59.308Z,49.10
2022-08-08T02:34:34.846Z,49.28
2022-08-08T02:37:52.376Z,49.24
2022-08-08T02:40:50.219Z,49.32
2022-08-08T02:44:37.640Z,49.19
2022-08-08T02:47:00.236Z,49.29
2022-08-08T02:49:57.075Z,49.27
2022-08-08T02:52:38.790Z,49.23
2022-08-08T02:55:23.689Z,49.33
2022-08-08T02:58:28.333Z,49.22
2022-08-08T03:01:32.690Z,49.38
2022-08-08T03:05:03.242Z,49.30
2022-08-08T03:08:13.518Z,49.10
2022-08-08T03:11:07.260Z,49.24
2022-08-08T03:15:58.358Z,49.44
2022-08-08T03:16:48.949Z,49.35
2022-08-08T03:19:28.069Z,49.44
2022-08-08T03:21:59.684Z,49.28
2022-08-08T03:24:27.111Z,49.24
2022-08-08T03:27:26.927Z,49.29
2022-08-08T03:30:02.192Z,49.21
2022-08-08T03:32:58.610Z,49.06
2022-08-08T03:35:30.067Z,48.74
2022-08-08T03:38:57.107Z,48.74
2022-08-08T03:40:52.280Z,48.60
2022-08-08T03:43:19.965Z,48.89
2022-08-08T03:46:07.357Z,48.88
2022-08-08T03:49:09.700Z,49.04
2022-08-08T03:51:40.014Z,49.20
2022-08-08T03:54:08.740Z,49.10
2022-08-08T03:56:36.384Z,49.24
2022-08-08T03:59:03.754Z,49.22
2022-08-08T04:02:31.722Z,49.33
2022-08-08T04:04:30.673Z,49.19
2022-08-08T04:07:01.522Z,49.03
2022-08-08T04:09:59.433Z,48.98
2022-08-08T04:12:16.069Z,48.73
2022-08-08T04:14:45.246Z,48.66
2022-08-08T04:17:22.501Z,48.68
2022-08-08T04:19:59.568Z,48.84
2022-08-08T04:22:30.562Z,48.79
2022-08-08T04:24:58.170Z,48.75
2022-08-08T04:28:02.722Z,48.73
2022-08-08T04:30:18.509Z,48.58
2022-08-08T04:32:49.928Z,48.42
2022-08-08T04:35:22.787Z,48.32
2022-08-08T04:37:51.018Z,48.14
2022-08-08T04:40:18.455Z,47.84
2022-08-08T04:42:55.878Z,47.76
2022-08-08T04:45:23.817Z,47.55
2022-08-08T04:47:54.571Z,47.58
2022-08-08T04:50:25.355Z,47.28
2022-08-08T04:53:04.846Z,46.92
2022-08-08T04:55:55.182Z,47.30
2022-08-08T04:58:23.196Z,47.21
2022-08-08T05:00:51.777Z,46.92
2022-08-08T05:04:11.160Z,46.53
2022-08-08T05:06:12.675Z,46.49
2022-08-08T05:08:42.079Z,46.22
2022-08-08T05:11:18.628Z,46.23
2022-08-08T05:13:58.109Z,46.15
2022-08-08T05:16:50.969Z,46.00
2022-08-08T05:20:10.731Z,46.02
2022-08-08T05:22:05.651Z,45.83
2022-08-08T05:24:34.294Z,45.94
2022-08-08T05:27:07.536Z,46.16
2022-08-08T05:29:36.042Z,46.03
2022-08-08T05:32:07.627Z,45.59
2022-08-08T05:34:41.003Z,45.54
2022-08-08T05:37:15.756Z,45.49
2022-08-08T05:39:50.049Z,45.52
2022-08-08T05:42:25.635Z,45.27
2022-08-08T05:44:53.339Z,44.71
2022-08-08T05:47:22.150Z,44.69
2022-08-08T05:49:53.871Z,44.27
2022-08-08T05:52:22.784Z,44.25
2022-08-08T05:55:03.276Z,43.77
2022-08-08T05:58:06.183Z,43.83
2022-08-08T06:00:25.837Z,43.70
2022-08-08T06:03:13.231Z,43.03
2022-08-08T06:05:56.569Z,42.64
2022-08-08T06:08:37.796Z,42.28
2022-08-08T06:11:05.962Z,42.38
2022-08-08T06:13:36.337Z,42.09
2022-08-08T06:16:14.642Z,41.80
2022-08-08T06:18:42.910Z,41.84
2022-08-08T06:21:11.605Z,41.95
2022-08-08T06:24:03.310Z,41.31
2022-08-08T06:26:45.183Z,41.44
2022-08-08T06:29:48.742Z,40.96
2022-08-08T06:32:15.243Z,40.67
2022-08-08T06:35:11.682Z,40.52
2022-08-08T06:37:40.072Z,40.28
2022-08-08T06:40:14.246Z,40.49
2022-08-08T06:42:56.448Z,40.03
2022-08-08T06:45:23.846Z,39.94
2022-08-08T06:48:01.559Z,39.71
2022-08-08T06:50:31.904Z,39.81
2022-08-08T06:53:14.094Z,39.43
2022-08-08T06:55:47.115Z,39.47
2022-08-08T06:58:30.824Z,39.21
2022-08-08T07:01:52.415Z,39.10
2022-08-08T07:04:40.394Z,38.83
2022-08-08T07:06:46.289Z,38.61
2022-08-08T07:09:20.852Z,38.69
2022-08-08T07:11:53.182Z,38.17
2022-08-08T07:14:33.947Z,38.14
2022-08-08T07:17:09.266Z,37.85
2022-08-08T07:20:00.072Z,37.85
2022-08-08T07:23:05.530Z,37.44
2022-08-08T07:25:39.001Z,37.23
2022-08-08T07:28:19.686Z,37.12
2022-08-08T07:30:47.258Z,37.10
2022-08-08T07:33:17.641Z,36.64
2022-08-08T07:35:48.622Z,36.52
2022-08-08T07:38:21.158Z,36.45
2022-08-08T07:41:04.540Z,36.52
2022-08-08T07:43:36.866Z,36.50
2022-08-08T07:46:17.962Z,36.47
2022-08-08T07:48:51.440Z,36.24
2022-08-08T07:51:23.124Z,35.47
2022-08-08T07:54:26.577Z,35.17
2022-08-08T07:57:10.245Z,35.22
2022-08-08T07:59:59.814Z,34.46
2022-08-08T08:02:41.741Z,34.37
2022-08-08T08:05:20.506Z,34.00
2022-08-08T08:07:52.964Z,34.13
2022-08-08T08:10:21.178Z,33.64
2022-08-08T08:13:25.473Z,33.53
2022-08-08T08:16:18.263Z,33.33
2022-08-08T08:18:56.052Z,33.19
2022-08-08T08:21:44.460Z,32.48
2022-08-08T08:24:15.565Z,32.81
2022-08-08T08:26:46.994Z,31.99
2022-08-08T08:29:20.053Z,31.93
2022-08-08T08:31:54.064Z,31.41
2022-08-08T08:34:32.529Z,31.17
2022-08-08T08:37:07.414Z,31.15
2022-08-08T08:39:59.827Z,30.57
2022-08-08T08:42:29.473Z,30.00
2022-08-08T08:45:21.664Z,29.98
2022-08-08T08:47:53.254Z,29.70
2022-08-08T08:50:32.449Z,29.69
2022-08-08T08:53:27.935Z,29.49
2022-08-08T08:55:52.970Z,29.43
2022-08-08T08:58:27.991Z,29.48
2022-08-08T09:01:08.290Z,29.22
2022-08-08T09:03:47.635Z,29.20
2022-08-08T09:06:29.006Z,28.39
2022-08-08T09:09:35.314Z,27.83
2022-08-08T09:12:11.242Z,27.09
2022-08-08T09:14:43.039Z,26.37
2022-08-08T09:17:17.874Z,26.61
2022-08-08T09:21:57.612Z,25.89
2022-08-08T09:22:36.019Z,26.28
2022-08-08T09:25:04.950Z,25.84
2022-08-08T09:27:55.811Z,25.45
2022-08-08T09:30:22.259Z,25.09
2022-08-08T09:33:55.453Z,25.32
2022-08-08T09:35:50.073Z,25.53
2022-08-08T09:38:59.330Z,25.38
2022-08-08T09:42:15.234Z,25.56
2022-08-08T09:44:44.089Z,25.50
2022-08-08T09:47:26.478Z,25.57
2022-08-08T09:50:11.807Z,25.55
2022-08-08T09:52:58.416Z,25.70
2022-08-08T09:55:51.295Z,25.64
2022-08-08T09:58:27.675Z,26.07
2022-08-08T10:01:14.447Z,26.54
2022-08-08T10:04:02.296Z,26.41
2022-08-08T10:06:32.651Z,26.14
2022-08-08T10:09:02.522Z,26.41
2022-08-08T10:12:25.730Z,26.07
2022-08-08T10:14:34.798Z,25.46
2022-08-08T10:17:56.604Z,25.76
2022-08-08T10:20:00.122Z,25.35
2022-08-08T10:22:33.905Z,25.46
2022-08-08T10:25:15.723Z,25.47
2022-08-08T10:27:43.853Z,24.97
2022-08-08T10:30:16.423Z,23.68
2022-08-08T10:33:00.846Z,23.66
2022-08-08T10:36:20.721Z,22.66
2022-08-08T10:38:20.164Z,21.55
2022-08-08T10:40:51.791Z,20.66
2022-08-08T10:43:22.237Z,20.24
2022-08-08T10:45:56.618Z,20.01
2022-08-08T10:48:37.163Z,19.46
2022-08-08T10:51:14.016Z,19.04
2022-08-08T10:53:57.492Z,18.37
2022-08-08T10:56:27.517Z,18.91
2022-08-08T10:59:01.230Z,18.15
2022-08-08T11:01:29.597Z,18.95
2022-08-08T11:04:02.576Z,18.08
2022-08-08T11:06:34.635Z,17.10
2022-08-08T11:09:15.530Z,16.77
2022-08-08T11:12:05.831Z,16.23
2022-08-08T11:14:52.267Z,15.88
2022-08-08T11:17:59.684Z,15.41
2022-08-08T11:20:27.743Z,15.80
2022-08-08T11:23:05.522Z,16.30
2022-08-08T11:25:51.815Z,16.65
2022-08-08T11:28:25.707Z,16.53
2022-08-08T11:30:59.949Z,16.30
2022-08-08T11:33:51.825Z,16.05
2022-08-08T11:36:15.309Z,16.64
2022-08-08T11:38:54.781Z,16.56
2022-08-08T11:41:24.843Z,16.17
2022-08-08T11:43:57.807Z,15.99
2022-08-08T11:46:26.525Z,15.24
2022-08-08T11:48:56.290Z,15.34
2022-08-08T11:51:30.010Z,15.56
2022-08-08T11:54:27.407Z,16.00
2022-08-08T11:57:17.087Z,16.16
2022-08-08T12:00:00.613Z,16.78
2022-08-08T12:02:41.753Z,17.34
2022-08-08T12:05:13.300Z,17.34
2022-08-08T12:07:56.695Z,17.08
2022-08-08T12:10:29.031Z,17.14
2022-08-08T12:13:05.444Z,17.72
2022-08-08T12:15:42.704Z,17.74
2022-08-08T12:18:14.576Z,17.06
2022-08-08T12:20:44.901Z,16.50
2022-08-08T12:23:25.072Z,16.10
2022-08-08T12:26:09.841Z,16.15
2022-08-08T12:28:36.521Z,16.24
2022-08-08T12:31:10.048Z,16.49
2022-08-08T12:34:01.955Z,17.23
2022-08-08T12:36:46.227Z,17.62
2022-08-08T12:39:13.359Z,17.50
2022-08-08T12:41:57.327Z,17.79
2022-08-08T12:44:32.916Z,17.61
2022-08-08T12:47:00.969Z,18.65
2022-08-08T12:49:45.330Z,18.35
2022-08-08T12:52:28.699Z,18.50
2022-08-08T12:55:13.360Z,18.83
2022-08-08T12:57:49.557Z,19.24
2022-08-08T13:00:34.204Z,19.28
2022-08-08T13:03:07.338Z,19.38
2022-08-08T13:06:04.131Z,19.65
2022-08-08T13:08:22.221Z,19.84
2022-08-08T13:11:00.356Z,19.45
2022-08-08T13:13:34.633Z,19.07
2022-08-08T13:16:25.325Z,18.67
2022-08-08T13:18:56.970Z,18.89
2022-08-08T13:21:36.303Z,19.07
2022-08-08T13:24:18.538Z,18.85
2022-08-08T13:27:02.489Z,19.13
2022-08-08T13:29:37.930Z,18.42
2022-08-08T13:32:08.537Z,18.66
2022-08-08T13:34:39.836Z,17.87
2022-08-08T13:37:19.516Z,17.26
2022-08-08T13:39:58.363Z,16.94
2022-08-08T13:42:25.986Z,16.44
2022-08-08T13:44:57.146Z,16.49
2022-08-08T13:47:25.600Z,16.26
2022-08-08T13:50:37.622Z,16.45
2022-08-08T13:52:48.495Z,16.67
2022-08-08T13:55:28.975Z,16.98
2022-08-08T13:58:08.141Z,17.38
2022-08-08T14:00:45.291Z,18.26
2022-08-08T14:03:47.292Z,18.16
2022-08-08T14:06:20.632Z,18.21
2022-08-08T14:08:58.087Z,18.36
2022-08-08T14:11:29.891Z,18.44
2022-08-08T14:13:59.449Z,18.89
2022-08-08T14:16:28.020Z,19.17
2022-08-08T14:19:00.661Z,19.04
2022-08-08T14:21:48.767Z,18.81
2022-08-08T14:24:34.834Z,19.41
2022-08-08T14:27:07.371Z,19.33
2022-08-08T14:29:39.387Z,19.21
2022-08-08T14:32:11.611Z,18.82
2022-08-08T14:34:42.608Z,18.85
2022-08-08T14:37:11.674Z,18.31
2022-08-08T14:39:49.958Z,19.04
2022-08-08T14:42:28.314Z,19.05
2022-08-08T14:45:00.847Z,19.39
2022-08-08T14:47:34.386Z,19.52
2022-08-08T14:50:15.090Z,19.99
2022-08-08T14:53:09.813Z,20.97
2022-08-08T14:55:42.418Z,21.01
2022-08-08T14:58:11.777Z,21.51
2022-08-08T15:00:45.125Z,21.79
2022-08-08T15:03:15.782Z,22.15
2022-08-08T15:05:53.724Z,22.73
2022-08-08T15:08:34.495Z,23.03
2022-08-08T15:11:06.841Z,23.54
2022-08-08T15:13:40.848Z,23.54
2022-08-08T15:16:22.823Z,23.57
2022-08-08T15:18:52.061Z,24.12
2022-08-08T15:21:20.674Z,24.01
2022-08-08T15:23:51.046Z,24.25
2022-08-08T15:29:12.210Z,24.58
2022-08-08T15:32:17.976Z,24.82
2022-08-08T15:34:31.455Z,24.96
2022-08-08T15:37:02.368Z,25.19
2022-08-08T15:39:38.207Z,24.84
2022-08-08T15:42:18.175Z,25.29
2022-08-08T15:44:58.810Z,25.62
2022-08-08T15:47:25.487Z,25.40
2022-08-08T15:49:53.344Z,25.46
2022-08-08T15:52:22.138Z,25.56
2022-08-08T15:54:51.800Z,25.53
2022-08-08T15:57:20.735Z,25.39
2022-08-08T16:00:06.908Z,25.70
2022-08-08T16:02:34.588Z,25.61
2022-08-08T16:05:02.039Z,25.67
2022-08-08T16:07:51.693Z,25.67
2022-08-08T16:13:10.123Z,25.78
2022-08-08T16:13:28.630Z,26.11
2022-08-08T16:15:59.061Z,26.13
2022-08-08T16:18:35.979Z,26.19
2022-08-08T16:21:05.987Z,26.52
2022-08-08T16:23:50.085Z,26.28
2022-08-08T16:26:23.016Z,26.59
2022-08-08T16:29:03.343Z,26.87
2022-08-08T16:31:35.109Z,26.72
2022-08-08T16:34:04.157Z,27.07
2022-08-08T16:36:33.793Z,27.41
2022-08-08T16:39:16.685Z,27.31
2022-08-08T16:41:51.147Z,27.17
2022-08-08T16:44:27.862Z,27.56
2022-08-08T16:47:16.538Z,27.84
2022-08-08T16:49:44.077Z,27.67
2022-08-08T16:55:20.746Z,27.82
2022-08-08T16:55:34.010Z,28.05
2022-08-08T16:58:13.799Z,28.17
2022-08-08T17:00:34.925Z,28.48
2022-08-08T17:03:03.532Z,28.10
2022-08-08T17:05:31.197Z,28.59
2022-08-08T17:08:09.512Z,28.56
2022-08-08T17:10:36.274Z,28.48
2022-08-08T17:13:03.049Z,28.91
2022-08-08T17:15:41.331Z,28.68
2022-08-08T17:18:19.535Z,28.94
2022-08-08T17:20:47.137Z,29.24
2022-08-08T17:23:58.497Z,28.98
2022-08-08T17:26:05.354Z,29.53
2022-08-08T17:28:35.259Z,29.79
2022-08-08T17:31:44.064Z,30.17
2022-08-08T17:34:49.420Z,30.14
2022-08-08T17:36:38.417Z,30.17
2022-08-08T17:40:04.787Z,30.30
2022-08-08T17:42:12.855Z,30.91
2022-08-08T17:44:44.014Z,30.45
2022-08-08T17:47:23.188Z,30.53
2022-08-08T17:49:52.877Z,31.11
2022-08-08T17:52:24.044Z,31.42
2022-08-08T17:54:56.438Z,31.34
2022-08-08T17:57:24.903Z,31.83
2022-08-08T17:59:58.792Z,31.61
2022-08-08T18:02:30.223Z,32.07
2022-08-08T18:05:04.351Z,31.77
2022-08-08T18:08:02.356Z,32.20
2022-08-08T18:10:20.000Z,32.23
2022-08-08T18:12:57.862Z,32.55
2022-08-08T18:15:25.320Z,32.50
2022-08-08T18:18:09.966Z,32.65
2022-08-08T18:20:54.568Z,32.80
2022-08-08T18:23:22.385Z,33.46
2022-08-08T18:25:50.147Z,33.51
2022-08-08T18:28:21.647Z,33.33
2022-08-08T18:30:52.288Z,33.47
2022-08-08T18:33:36.949Z,33.91
2022-08-08T18:36:10.217Z,34.25
2022-08-08T18:38:49.175Z,34.53
2022-08-08T18:41:16.002Z,34.59
2022-08-08T18:43:43.536Z,34.72
2022-08-08T18:46:55.369Z,35.37
2022-08-08T18:48:58.042Z,35.60
2022-08-08T18:51:52.840Z,35.89
2022-08-08T18:54:22.534Z,35.98
2022-08-08T18:56:57.525Z,36.25
2022-08-08T18:59:24.761Z,36.63
2022-08-08T19:02:27.995Z,36.81
2022-08-08T19:04:50.897Z,36.81
2022-08-08T19:07:18.361Z,37.33
2022-08-08T19:09:49.598Z,37.20
2022-08-08T19:12:32.537Z,37.29
2022-08-08T19:15:02.023Z,37.35
2022-08-08T19:17:48.483Z,37.61
2022-08-08T19:20:16.416Z,37.37
2022-08-08T19:22:44.654Z,37.44
2022-08-08T19:25:29.133Z,37.38
2022-08-08T19:28:01.260Z,37.89
2022-08-08T19:30:28.381Z,37.71
2022-08-08T19:32:58.106Z,37.80
2022-08-08T19:35:44.207Z,37.76
2022-08-08T19:38:17.499Z,38.19
2022-08-08T19:40:55.763Z,38.34
2022-08-08T19:43:28.607Z,38.57
2022-08-08T19:46:01.047Z,38.53
2022-08-08T19:48:30.903Z,39.14
2022-08-08T19:51:00.890Z,39.27
2022-08-08T19:53:51.591Z,39.31
2022-08-08T19:56:16.219Z,39.50
2022-08-08T19:58:52.934Z,40.00
2022-08-08T20:01:26.254Z,40.22
2022-08-08T20:04:03.610Z,40.36
2022-08-08T20:06:30.622Z,40.61
2022-08-08T20:08:58.109Z,40.91
2022-08-08T20:11:24.839Z,40.87
2022-08-08T20:14:33.085Z,41.14
2022-08-08T20:16:45.473Z,40.89
2022-08-08T20:19:12.313Z,41.23
2022-08-08T20:21:43.022Z,41.32
2022-08-08T20:24:12.739Z,41.46
2022-08-08T20:26:41.647Z,41.31
2022-08-08T20:32:07.516Z,41.39
2022-08-08T20:34:31.831Z,41.86
2022-08-08T20:37:00.794Z,41.69
2022-08-08T20:39:41.629Z,41.78
2022-08-08T20:42:23.692Z,41.62
2022-08-08T20:44:57.862Z,41.24
2022-08-08T20:47:25.534Z,41.57
2022-08-08T20:49:55.789Z,42.07
2022-08-08T20:52:27.748Z,42.14
2022-08-08T20:54:55.774Z,42.51
2022-08-08T20:57:22.587Z,42.96
2022-08-08T20:59:54.120Z,43.08
2022-08-08T21:02:25.888Z,43.68
2022-08-08T21:05:01.168Z,44.13
2022-08-08T21:07:29.922Z,44.03
2022-08-08T21:10:15.042Z,44.27
2022-08-08T21:12:52.778Z,44.29
2022-08-08T21:16:06.233Z,44.54
2022-08-08T21:18:11.828Z,44.71
2022-08-08T21:20:38.936Z,45.01
2022-08-08T21:23:09.506Z,45.32
2022-08-08T21:25:39.657Z,45.27
2022-08-08T21:28:15.835Z,45.70
2022-08-08T21:30:45.265Z,45.59
2022-08-08T21:33:17.611Z,46.28
2022-08-08T21:36:17.842Z,46.38
2022-08-08T21:38:31.210Z,46.13
2022-08-08T21:40:58.291Z,46.38
2022-08-08T21:43:31.312Z,46.27
2022-08-08T21:48:07.422Z,46.42
2022-08-08T21:48:53.223Z,46.17
2022-08-08T21:54:23.434Z,46.00
2022-08-08T21:54:32.212Z,45.89
2022-08-08T21:56:57.170Z,45.93
2022-08-08T21:59:26.717Z,46.21
2022-08-08T22:02:10.731Z,46.36
2022-08-08T22:04:39.326Z,46.01
2022-08-08T22:07:06.008Z,46.20
2022-08-08T22:09:37.260Z,45.86
2022-08-08T22:12:09.666Z,46.12
2022-08-08T22:14:42.796Z,46.06
2022-08-08T22:17:10.557Z,46.42
2022-08-08T22:20:12.986Z,46.57
2022-08-08T22:22:29.128Z,46.33
2022-08-08T22:24:58.253Z,46.42
2022-08-08T22:27:38.903Z,46.70
2022-08-08T22:30:13.659Z,46.92
2022-08-08T22:32:41.193Z,46.71
2022-08-08T22:35:08.486Z,46.81
2022-08-08T22:37:53.907Z,47.12
2022-08-08T22:40:21.283Z,47.21
2022-08-08T22:42:48.329Z,47.50
2022-08-08T22:45:15.783Z,47.66
2022-08-08T22:47:49.421Z,48.04
2022-08-08T22:50:27.479Z,47.96
2022-08-08T22:54:30.506Z,48.23
2022-08-08T22:55:59.307Z,48.42
2022-08-08T22:58:33.009Z,48.16
2022-08-08T23:01:30.170Z,47.96
2022-08-08T23:03:56.559Z,48.26
2022-08-08T23:06:24.846Z,48.67
2022-08-08T23:08:54.286Z,48.91
2022-08-08T23:11:23.222Z,48.77
2022-08-08T23:14:00.999Z,48.68
2022-08-08T23:16:38.058Z,49.13
2022-08-08T23:19:09.576Z,49.22
2022-08-08T23:21:38.110Z,49.46
2022-08-08T23:24:06.660Z,49.49
2022-08-08T23:26:34.347Z,49.82
2022-08-08T23:29:01.744Z,49.96
2022-08-08T23:31:28.470Z,50.10
2022-08-08T23:34:17.001Z,50.48
2022-08-08T23:36:42.381Z,50.61
2022-08-08T23:39:09.365Z,50.76
2022-08-08T23:41:41.612Z,51.02
2022-08-08T23:44:12.626Z,51.25
2022-08-08T23:49:03.598Z,51.61
2022-08-08T23:49:26.488Z,52.07
2022-08-08T23:52:06.770Z,52.36
2022-08-08T23:54:53.601Z,52.46
2022-08-08T23:57:39.355Z,52.45
